Time;durP1;ratioP1;P1;durP2;ratioP2;P2;SDS_P1;SDS_P2;PMS_P1;PMS_P2;Temp;Humidity;BMP_temperature;BMP_pressure;BME280_temperature;BME280_humidity;BME280_pressure;Samples;Min_cycle;Max_cycle;Signal;HPM_P1;HPM_P2
2022/12/22 03:27:49;;;;;;;50.65;22.90;;;0.80;99.90;;;;;;5051653;28;20452;-65
2022/12/22 03:30:15;;;;;;;46.75;21.98;;;0.70;99.90;;;;;;5052326;28;20021;-66
2022/12/22 03:32:40;;;;;;;47.10;22.52;;;0.70;99.90;;;;;;5052233;28;20025;-66
2022/12/22 03:35:06;;;;;;;58.90;24.25;;;0.70;99.90;;;;;;5051659;28;20033;-65
2022/12/22 03:37:32;;;;;;;52.88;22.20;;;0.70;99.90;;;;;;5052204;28;20053;-66
2022/12/22 03:39:58;;;;;;;55.13;23.75;;;0.70;99.90;;;;;;5051884;28;20032;-65
2022/12/22 03:47:53;;;;;;;60.75;23.98;;;0.50;99.90;;;;;;5051826;28;20036;-66
2022/12/22 03:50:18;;;;;;;56.25;24.80;;;0.50;99.90;;;;;;5052178;28;20029;-65
2022/12/22 03:52:44;;;;;;;59.90;23.88;;;0.50;99.90;;;;;;5051934;28;20362;-65
2022/12/22 03:55:10;;;;;;;51.33;22.42;;;0.50;99.90;;;;;;5051527;28;20389;-65
2022/12/22 03:57:35;;;;;;;60.58;25.52;;;0.50;99.90;;;;;;5052027;28;20029;-65
2022/12/22 04:00:01;;;;;;;64.57;24.58;;;0.50;99.90;;;;;;5051387;28;20023;-66
2022/12/22 04:02:27;;;;;;;59.28;24.17;;;0.50;99.90;;;;;;5051966;28;20041;-66
2022/12/22 04:04:52;;;;;;;62.35;24.73;;;0.50;99.90;;;;;;5051528;28;20108;-66
2022/12/22 04:07:18;;;;;;;60.92;24.70;;;0.50;99.90;;;;;;5051978;28;20082;-65
2022/12/22 04:12:53;;;;;;;65.97;25.88;;;0.50;99.90;;;;;;5051870;28;20470;-65
2022/12/22 04:15:13;;;;;;;63.75;24.08;;;0.40;99.90;;;;;;5051124;28;20132;-65
2022/12/22 04:17:39;;;;;;;67.03;24.92;;;0.40;99.90;;;;;;5051516;28;20053;-65
2022/12/22 04:20:05;;;;;;;67.20;26.83;;;0.30;99.90;;;;;;5051726;28;20044;-65
2022/12/22 04:22:31;;;;;;;61.67;26.08;;;0.30;99.90;;;;;;5051432;28;20037;-65
2022/12/22 04:24:57;;;;;;;66.45;25.35;;;0.30;99.90;;;;;;5051379;28;20355;-65
2022/12/22 04:27:22;;;;;;;72.88;27.58;;;0.30;99.90;;;;;;5051854;28;20079;-65
2022/12/22 04:29:48;;;;;;;71.93;27.33;;;0.30;99.90;;;;;;5051723;28;20060;-65
2022/12/22 04:32:13;;;;;;;70.72;27.58;;;0.30;99.90;;;;;;5050973;28;20021;-65
2022/12/22 04:34:39;;;;;;;79.70;29.95;;;0.30;99.90;;;;;;5051729;28;20032;-66
2022/12/22 04:37:05;;;;;;;74.50;29.58;;;0.40;99.90;;;;;;5051308;28;20044;-65
2022/12/22 04:39:30;;;;;;;82.80;28.80;;;0.30;99.90;;;;;;5052029;28;20110;-65
2022/12/22 04:41:56;;;;;;;83.60;30.88;;;0.40;99.90;;;;;;5051320;28;20068;-66
2022/12/22 04:44:21;;;;;;;101.72;31.23;;;0.30;99.90;;;;;;5053593;28;20024;-65
2022/12/22 04:46:47;;;;;;;88.13;28.13;;;0.30;99.90;;;;;;5055320;28;20460;-65
2022/12/22 04:49:13;;;;;;;82.95;31.33;;;0.30;99.90;;;;;;5055008;28;20752;-65
2022/12/22 04:51:38;;;;;;;75.25;28.42;;;0.30;99.90;;;;;;5055433;28;20061;-65
2022/12/22 04:54:04;;;;;;;88.90;30.23;;;0.30;99.90;;;;;;5054597;28;20119;-65
2022/12/22 04:56:30;;;;;;;81.85;30.23;;;0.30;99.90;;;;;;5054660;28;20107;-65
2022/12/22 04:58:55;;;;;;;87.10;29.27;;;0.40;99.90;;;;;;5054653;28;20029;-66
2022/12/22 05:01:21;;;;;;;79.18;27.13;;;0.40;99.90;;;;;;5054644;28;20040;-65
2022/12/22 05:03:47;;;;;;;115.55;29.30;;;0.30;99.90;;;;;;5054809;28;20033;-65
2022/12/22 05:06:13;;;;;;;118.25;27.33;;;0.40;99.90;;;;;;5053948;28;20355;-65
2022/12/22 05:08:39;;;;;;;157.05;30.33;;;0.40;99.90;;;;;;5054996;28;20458;-65
2022/12/22 05:11:05;;;;;;;121.72;27.50;;;0.30;99.90;;;;;;5054261;28;20029;-65
2022/12/22 05:13:31;;;;;;;129.30;28.95;;;0.30;99.90;;;;;;5054595;28;20025;-65
2022/12/22 05:16:08;;;;;;;97.53;27.42;;;0.30;99.90;;;;;;5054291;28;20033;-66
2022/12/22 05:18:34;;;;;;;92.47;29.63;;;0.30;99.90;;;;;;5054777;28;20058;-65
2022/12/22 05:21:06;;;;;;;201.38;29.35;;;0.30;99.90;;;;;;5053877;28;20045;-65
2022/12/22 05:23:32;;;;;;;88.00;27.63;;;0.30;99.90;;;;;;5054811;28;20087;-65
2022/12/22 05:25:58;;;;;;;213.32;28.02;;;0.30;99.90;;;;;;5053698;28;20054;-65
2022/12/22 05:28:24;;;;;;;165.85;27.45;;;0.30;99.90;;;;;;5053076;28;20355;-66
2022/12/22 05:30:49;;;;;;;156.25;28.95;;;0.30;99.90;;;;;;5054297;28;20432;-66
2022/12/22 05:33:15;;;;;;;131.13;28.40;;;0.20;99.90;;;;;;5054235;28;20029;-66
2022/12/22 05:35:41;;;;;;;195.73;23.55;;;0.20;99.90;;;;;;5054139;28;20025;-67
2022/12/22 05:38:06;;;;;;;127.63;25.05;;;0.10;99.90;;;;;;5053780;28;20045;-66
2022/12/22 05:40:32;;;;;;;130.48;24.38;;;0.10;99.90;;;;;;5054318;28;20082;-66
2022/12/22 05:42:58;;;;;;;238.63;26.52;;;0.10;99.90;;;;;;5053464;28;20025;-67
2022/12/22 05:45:24;;;;;;;252.90;25.73;;;0.00;99.90;;;;;;5054007;28;20194;-66
2022/12/22 05:47:51;;;;;;;165.65;26.33;;;0.00;99.90;;;;;;5054046;28;20478;-66
2022/12/22 05:50:20;;;;;;;188.43;26.60;;;0.00;99.90;;;;;;5053541;28;20390;-66
2022/12/22 05:52:46;;;;;;;212.48;25.67;;;0.00;99.90;;;;;;5053899;28;20118;-66
2022/12/22 05:55:13;;;;;;;173.20;26.77;;;-0.10;99.90;;;;;;5051969;28;20029;-66
2022/12/22 05:57:39;;;;;;;178.32;27.55;;;-0.10;99.90;;;;;;5053799;28;20155;-66
2022/12/22 06:00:08;;;;;;;155.50;25.95;;;-0.10;99.90;;;;;;5053623;28;20027;-67
2022/12/22 06:02:34;;;;;;;244.55;29.58;;;-0.10;99.90;;;;;;5053510;28;20036;-66
2022/12/22 06:04:59;;;;;;;171.02;26.88;;;-0.10;99.90;;;;;;5053255;28;20021;-68
2022/12/22 06:07:25;;;;;;;148.80;27.58;;;-0.10;99.90;;;;;;5053353;28;20023;-66
2022/12/22 06:09:51;;;;;;;150.68;28.35;;;-0.10;99.90;;;;;;5053163;28;20021;-66
2022/12/22 06:12:16;;;;;;;145.15;27.63;;;-0.10;99.90;;;;;;5052973;28;20458;-66
2022/12/22 06:14:42;;;;;;;195.30;27.63;;;-0.10;99.90;;;;;;5053391;28;20060;-66
2022/12/22 06:17:08;;;;;;;143.55;28.00;;;-0.20;99.90;;;;;;5053005;28;20391;-66
2022/12/22 06:19:33;;;;;;;135.77;28.20;;;-0.10;99.90;;;;;;5053236;28;20056;-65
2022/12/22 06:21:59;;;;;;;108.95;27.13;;;-0.10;99.90;;;;;;5053144;28;20029;-66
2022/12/22 06:24:25;;;;;;;107.53;24.25;;;-0.10;99.90;;;;;;5052520;28;20025;-66
2022/12/22 06:26:50;;;;;;;121.32;26.45;;;-0.10;99.90;;;;;;5053046;28;20066;-66
2022/12/22 06:29:16;;;;;;;132.25;28.88;;;-0.10;99.90;;;;;;5052697;28;20025;-66
2022/12/22 06:31:42;;;;;;;96.03;27.48;;;-0.10;99.90;;;;;;5053054;28;20394;-66
2022/12/22 06:34:09;;;;;;;122.57;26.45;;;-0.10;99.90;;;;;;5052623;28;20113;-66
2022/12/22 06:36:35;;;;;;;123.70;26.02;;;-0.10;99.90;;;;;;5052855;28;20402;-66
2022/12/22 06:39:01;;;;;;;92.90;26.75;;;-0.10;99.90;;;;;;5053001;28;20033;-67
2022/12/22 06:44:11;;;;;;;114.63;27.13;;;-0.10;99.90;;;;;;5051203;28;20047;-66
2022/12/22 06:46:36;;;;;;;102.57;27.80;;;-0.10;99.90;;;;;;5052449;28;20029;-66
2022/12/22 06:49:02;;;;;;;87.03;27.55;;;-0.10;99.90;;;;;;5052511;28;20401;-69
2022/12/22 06:51:28;;;;;;;103.43;25.27;;;0.00;99.90;;;;;;5052897;28;20040;-66
2022/12/22 06:53:53;;;;;;;124.35;31.05;;;0.00;99.90;;;;;;5052347;28;20100;-66
2022/12/22 06:56:19;;;;;;;149.40;26.33;;;0.00;99.90;;;;;;5051883;28;20056;-66
2022/12/22 06:58:44;;;;;;;124.97;27.00;;;0.00;99.90;;;;;;5052442;28;20017;-66
2022/12/22 07:01:10;;;;;;;123.72;27.75;;;-0.10;99.90;;;;;;5052240;28;20079;-67
2022/12/22 07:03:36;;;;;;;98.18;28.00;;;0.00;99.90;;;;;;5052467;28;20029;-66
2022/12/22 07:06:01;;;;;;;91.95;26.38;;;-0.10;99.90;;;;;;5051871;28;20072;-66
2022/12/22 07:08:27;;;;;;;111.85;28.35;;;0.00;99.90;;;;;;5051528;28;20040;-66
2022/12/22 07:10:58;;;;;;;84.72;26.88;;;0.00;99.90;;;;;;5052275;28;20067;-67
2022/12/22 07:13:30;;;;;;;126.88;27.08;;;0.00;99.90;;;;;;5052242;28;20035;-67
2022/12/22 07:15:56;;;;;;;87.32;27.75;;;0.00;99.90;;;;;;5052526;28;20025;-66
2022/12/22 07:18:23;;;;;;;75.70;27.27;;;0.00;99.90;;;;;;5052108;28;20079;-66
2022/12/22 07:20:48;;;;;;;76.60;27.60;;;0.00;99.90;;;;;;5052197;28;20071;-66
2022/12/22 07:23:14;;;;;;;101.05;26.90;;;0.00;99.90;;;;;;5051721;28;20057;-67
2022/12/22 07:25:40;;;;;;;75.30;27.92;;;0.00;99.90;;;;;;5051906;28;20159;-66
2022/12/22 07:28:06;;;;;;;95.55;27.38;;;0.10;99.90;;;;;;5052039;28;20399;-68
2022/12/22 07:30:34;;;;;;;93.07;27.92;;;0.10;99.90;;;;;;5051157;28;20115;-66
2022/12/22 07:33:00;;;;;;;95.20;29.67;;;0.10;99.90;;;;;;5052146;28;20126;-66
2022/12/22 07:35:25;;;;;;;94.90;29.33;;;0.10;99.90;;;;;;5052108;28;20056;-66
2022/12/22 07:37:51;;;;;;;83.13;28.90;;;0.10;99.90;;;;;;5052347;28;20106;-66
2022/12/22 07:40:16;;;;;;;98.90;28.15;;;0.10;99.90;;;;;;5051781;28;20025;-67
2022/12/22 07:42:45;;;;;;;92.07;29.65;;;0.10;99.90;;;;;;5052106;28;20041;-67
2022/12/22 07:45:12;;;;;;;90.22;30.13;;;0.20;99.90;;;;;;5051722;28;20033;-66
2022/12/22 07:47:38;;;;;;;88.60;28.13;;;0.10;99.90;;;;;;5051971;28;20090;-66
2022/12/22 07:50:24;;;;;;;85.13;27.60;;;0.20;99.90;;;;;;5050809;28;20029;-66
2022/12/22 07:52:51;;;;;;;84.30;27.48;;;0.20;99.90;;;;;;5051977;28;20021;-66
2022/12/22 07:55:17;;;;;;;79.63;27.67;;;0.30;99.90;;;;;;5051648;28;20469;-66
2022/12/22 07:57:43;;;;;;;76.18;26.33;;;0.30;99.90;;;;;;5052001;28;20079;-67
2022/12/22 08:00:10;;;;;;;82.40;26.50;;;0.30;99.90;;;;;;5051483;28;20028;-66
2022/12/22 08:02:35;;;;;;;75.07;26.20;;;0.30;99.90;;;;;;5051811;28;20037;-66
2022/12/22 08:05:01;;;;;;;79.05;27.10;;;0.30;99.90;;;;;;5051643;28;20444;-66
2022/12/22 08:07:27;;;;;;;78.55;27.10;;;0.40;99.90;;;;;;5051527;28;20033;-66
2022/12/22 08:09:52;;;;;;;70.25;26.67;;;0.30;99.90;;;;;;5051914;28;20457;-66
2022/12/22 08:12:18;;;;;;;68.32;26.13;;;0.40;99.90;;;;;;5051126;28;20083;-67
2022/12/22 08:14:44;;;;;;;64.63;25.67;;;0.40;99.90;;;;;;5051675;28;20020;-66
2022/12/22 08:17:11;;;;;;;64.70;25.23;;;0.40;99.90;;;;;;5051366;28;20090;-66
2022/12/22 08:19:37;;;;;;;77.70;26.00;;;0.40;99.90;;;;;;5054340;28;20089;-66
2022/12/22 08:22:03;;;;;;;71.82;26.27;;;0.50;99.90;;;;;;5055561;28;20037;-66
2022/12/22 08:24:29;;;;;;;71.65;23.83;;;0.50;99.90;;;;;;5053827;28;20266;-65
2022/12/22 08:27:01;;;;;;;77.13;27.85;;;0.50;99.90;;;;;;5055892;28;20028;-66
2022/12/22 08:29:39;;;;;;;75.65;27.77;;;0.50;99.90;;;;;;5055459;28;20114;-66
2022/12/22 08:32:06;;;;;;;77.55;26.98;;;0.50;99.90;;;;;;5055824;28;20040;-66
2022/12/22 08:34:31;;;;;;;74.78;26.42;;;0.50;99.90;;;;;;5054810;28;20025;-67
2022/12/22 08:37:00;;;;;;;89.25;27.08;;;0.50;99.90;;;;;;5055222;28;20055;-67
2022/12/22 08:39:31;;;;;;;89.07;29.90;;;0.50;99.90;;;;;;5054951;28;20104;-65
2022/12/22 08:41:58;;;;;;;80.68;28.95;;;0.50;99.90;;;;;;5054928;28;20434;-66
2022/12/22 08:44:26;;;;;;;80.88;28.30;;;0.50;99.90;;;;;;5055137;28;20032;-67
2022/12/22 08:46:54;;;;;;;83.15;29.50;;;0.50;99.90;;;;;;5055339;28;20100;-66
2022/12/22 08:49:20;;;;;;;86.45;28.10;;;0.50;99.90;;;;;;5054959;28;20029;-66
2022/12/22 08:51:45;;;;;;;84.97;27.17;;;0.50;99.90;;;;;;5055105;28;20037;-66
2022/12/22 08:54:11;;;;;;;86.38;27.27;;;0.60;99.90;;;;;;5054605;28;20027;-70
2022/12/22 08:56:37;;;;;;;84.70;29.92;;;0.50;99.90;;;;;;5055263;28;20397;-66
2022/12/22 08:59:06;;;;;;;96.45;28.50;;;0.60;99.90;;;;;;5054903;28;20028;-66
2022/12/22 09:01:33;;;;;;;93.57;30.88;;;0.60;99.90;;;;;;5054038;28;20037;-66
2022/12/22 09:03:58;;;;;;;83.93;29.52;;;0.60;99.90;;;;;;5054972;28;20350;-66
2022/12/22 09:06:25;;;;;;;96.63;30.38;;;0.60;99.90;;;;;;5054403;28;20036;-66
2022/12/22 09:08:55;;;;;;;97.03;30.05;;;0.60;99.90;;;;;;5054856;28;20040;-66
2022/12/22 09:11:21;;;;;;;94.30;29.40;;;0.60;99.90;;;;;;5054114;28;20032;-66
2022/12/22 09:13:49;;;;;;;91.00;31.08;;;0.60;99.90;;;;;;5053467;28;20258;-65
2022/12/22 09:16:14;;;;;;;79.00;27.05;;;0.60;99.90;;;;;;5054396;28;20454;-67
2022/12/22 09:18:40;;;;;;;84.28;28.35;;;0.70;99.90;;;;;;5054733;28;20036;-65
2022/12/22 09:21:06;;;;;;;81.82;27.40;;;0.70;99.90;;;;;;5054587;28;20090;-66
2022/12/22 09:23:31;;;;;;;70.93;26.35;;;0.70;99.90;;;;;;5054179;28;20029;-65
2022/12/22 09:25:57;;;;;;;65.65;25.48;;;0.70;99.90;;;;;;5054402;28;20036;-65
2022/12/22 09:28:23;;;;;;;72.20;27.17;;;0.70;99.90;;;;;;5052807;28;20048;-66
2022/12/22 09:30:52;;;;;;;72.47;25.40;;;0.70;99.90;;;;;;5054110;28;20029;-66
2022/12/22 09:33:18;;;;;;;75.28;27.30;;;0.80;99.90;;;;;;5053955;28;20107;-66
2022/12/22 09:35:44;;;;;;;67.35;26.67;;;0.80;99.90;;;;;;5053967;28;20470;-66
2022/12/22 09:38:10;;;;;;;70.03;28.27;;;0.80;99.90;;;;;;5054368;28;20031;-66
2022/12/22 09:40:35;;;;;;;80.05;30.10;;;0.80;99.90;;;;;;5052790;28;20523;-66
2022/12/22 09:43:03;;;;;;;73.45;26.92;;;0.70;99.90;;;;;;5053776;28;20416;-66
2022/12/22 09:45:29;;;;;;;69.22;27.42;;;0.80;99.90;;;;;;5053729;28;20021;-66
2022/12/22 09:47:55;;;;;;;78.75;27.85;;;0.80;99.90;;;;;;5054092;28;20139;-66
2022/12/22 09:50:24;;;;;;;81.25;29.25;;;0.80;99.90;;;;;;5053605;28;20017;-66
2022/12/22 09:52:57;;;;;;;86.13;27.83;;;0.80;99.90;;;;;;5052636;28;20036;-66
2022/12/22 09:55:23;;;;;;;81.55;28.40;;;0.80;99.90;;;;;;5053615;28;20391;-65
2022/12/22 09:57:49;;;;;;;82.15;28.52;;;0.80;99.90;;;;;;5053789;28;20028;-66
2022/12/22 10:00:19;;;;;;;69.53;27.63;;;0.90;99.90;;;;;;5053815;28;20057;-66
2022/12/22 10:03:12;;;;;;;76.55;27.25;;;0.90;99.90;;;;;;5053921;28;20377;-66
2022/12/22 10:06:11;;;;;;;72.45;26.75;;;0.90;99.90;;;;;;5053333;28;20048;-66
2022/12/22 10:08:39;;;;;;;74.32;27.15;;;0.90;99.90;;;;;;5052906;28;20108;-65
2022/12/22 10:11:06;;;;;;;75.55;27.00;;;0.90;99.90;;;;;;5053444;28;20033;-66
2022/12/22 10:13:32;;;;;;;89.10;34.47;;;0.90;99.90;;;;;;5053014;28;20033;-66
2022/12/22 10:15:58;;;;;;;79.40;28.35;;;0.90;99.90;;;;;;5053456;28;20031;-65
2022/12/22 10:18:28;;;;;;;93.82;29.38;;;0.90;99.90;;;;;;5052890;28;20056;-66
2022/12/22 10:21:13;;;;;;;77.78;28.23;;;0.90;99.90;;;;;;5053206;28;20487;-66
2022/12/22 10:23:44;;;;;;;84.15;29.73;;;0.90;99.90;;;;;;5053296;28;20037;-66
2022/12/22 10:26:15;;;;;;;79.00;27.85;;;1.00;99.90;;;;;;5053763;28;20036;-66
2022/12/22 10:29:13;;;;;;;73.88;26.50;;;1.00;99.90;;;;;;5052930;28;20037;-66
2022/12/22 10:32:01;;;;;;;68.00;26.83;;;1.00;99.90;;;;;;5043708;28;20049;-66
2022/12/22 10:34:28;;;;;;;72.25;26.63;;;1.00;99.90;;;;;;5052750;28;20462;-66
2022/12/22 10:37:02;;;;;;;70.82;27.92;;;1.10;99.90;;;;;;5052842;28;20072;-66
2022/12/22 10:39:32;;;;;;;69.90;26.88;;;1.00;99.90;;;;;;5052577;28;20082;-65
2022/12/22 10:42:09;;;;;;;70.80;28.77;;;1.00;99.90;;;;;;5052261;28;20109;-66
2022/12/22 10:44:36;;;;;;;73.88;27.40;;;1.00;99.90;;;;;;5052571;28;20380;-67
2022/12/22 10:47:23;;;;;;;77.32;27.45;;;1.10;99.90;;;;;;5052819;28;20024;-66
2022/12/22 10:49:53;;;;;;;74.32;28.25;;;1.10;99.90;;;;;;5052843;28;20121;-66
2022/12/22 10:52:30;;;;;;;66.67;26.13;;;1.10;99.90;;;;;;5052872;28;20061;-66
2022/12/22 10:55:16;;;;;;;72.50;28.17;;;1.10;99.90;;;;;;5052338;28;20246;-65
2022/12/22 10:57:41;;;;;;;61.40;24.48;;;1.10;99.90;;;;;;5052275;28;20025;-66
2022/12/22 11:00:29;;;;;;;70.53;25.88;;;1.10;99.90;;;;;;5051364;28;20128;-65
2022/12/22 11:03:00;;;;;;;67.82;26.52;;;1.20;99.90;;;;;;5052624;28;20382;-66
2022/12/22 11:05:26;;;;;;;63.13;24.77;;;1.10;99.90;;;;;;5052485;28;20474;-67
2022/12/22 11:07:54;;;;;;;65.30;24.85;;;1.20;99.90;;;;;;5052559;28;20067;-65
2022/12/22 11:10:31;;;;;;;60.65;25.23;;;1.20;99.90;;;;;;5052369;28;20032;-66
2022/12/22 11:13:18;;;;;;;56.90;25.45;;;1.20;99.90;;;;;;5052572;28;20033;-66
2022/12/22 11:15:58;;;;;;;61.60;23.73;;;1.20;99.90;;;;;;5051898;28;20098;-66
2022/12/22 11:18:51;;;;;;;61.67;23.67;;;1.20;99.90;;;;;;5050767;28;20021;-66
2022/12/22 11:21:44;;;;;;;68.00;25.17;;;1.30;99.90;;;;;;5052266;28;20040;-65
2022/12/22 11:24:37;;;;;;;55.92;23.50;;;1.30;99.90;;;;;;5051379;28;20090;-66
2022/12/22 11:27:16;;;;;;;61.78;25.23;;;1.30;99.90;;;;;;5052410;28;20032;-66
2022/12/22 11:29:57;;;;;;;59.67;25.15;;;1.30;99.90;;;;;;5051607;28;20420;-66
2022/12/22 11:32:47;;;;;;;60.40;25.08;;;1.30;99.90;;;;;;5051970;28;20072;-66
2022/12/22 11:36:03;;;;;;;68.45;27.25;;;1.30;99.90;;;;;;5052258;28;20025;-66
2022/12/22 11:38:56;;;;;;;60.83;24.98;;;1.30;99.90;;;;;;5009765;28;20037;-66
2022/12/22 11:41:41;;;;;;;65.15;24.75;;;1.30;99.90;;;;;;5010219;28;20042;-66
2022/12/22 11:44:09;;;;;;;65.03;25.77;;;1.30;99.90;;;;;;5010000;28;20038;-66
2022/12/22 11:46:44;;;;;;;56.92;24.77;;;1.30;99.90;;;;;;5009554;28;20026;-66
2022/12/22 11:49:21;;;;;;;63.58;25.42;;;1.40;99.90;;;;;;5009736;28;20068;-66
2022/12/22 11:52:11;;;;;;;63.65;26.77;;;1.40;99.90;;;;;;5009626;28;20425;-66
2022/12/22 11:54:46;;;;;;;56.10;23.45;;;1.40;99.90;;;;;;5013499;28;20078;-66
2022/12/22 11:57:26;;;;;;;68.90;26.30;;;1.40;99.90;;;;;;5013939;28;20070;-66
2022/12/22 12:00:08;;;;;;;68.20;26.88;;;1.40;99.90;;;;;;5013860;28;20112;-66
2022/12/22 12:03:11;;;;;;;65.53;26.85;;;1.40;99.90;;;;;;5013407;28;20046;-67
2022/12/22 12:05:42;;;;;;;68.63;27.50;;;1.40;99.90;;;;;;5013191;28;20172;-66
2022/12/22 12:08:16;;;;;;;69.68;25.92;;;1.50;99.90;;;;;;5018842;28;20037;-66
2022/12/22 12:10:50;;;;;;;66.15;27.13;;;1.50;99.90;;;;;;5055130;28;20540;-67
2022/12/22 12:13:43;;;;;;;72.05;28.35;;;1.50;99.90;;;;;;5054373;28;20036;-66
2022/12/22 12:16:43;;;;;;;63.40;26.02;;;1.50;99.90;;;;;;5055452;28;20021;-66
2022/12/22 12:19:26;;;;;;;59.20;25.60;;;1.50;99.90;;;;;;5003308;28;20033;-67
2022/12/22 12:21:56;;;;;;;68.53;26.58;;;1.50;99.90;;;;;;5055470;28;20087;-66
2022/12/22 12:24:21;;;;;;;71.57;26.27;;;1.50;99.90;;;;;;5055381;28;20107;-66
2022/12/22 12:27:11;;;;;;;62.63;24.95;;;1.50;99.90;;;;;;5055172;28;20414;-66
2022/12/22 12:29:45;;;;;;;60.08;25.27;;;1.60;99.90;;;;;;5055138;28;20033;-66
2022/12/22 12:32:39;;;;;;;61.72;24.73;;;1.60;99.90;;;;;;5055492;28;20377;-66
2022/12/22 12:35:33;;;;;;;61.83;25.52;;;1.60;99.90;;;;;;5049294;28;20044;-66
2022/12/22 12:38:22;;;;;;;64.80;25.40;;;1.60;99.90;;;;;;5054947;28;20131;-66
2022/12/22 12:41:20;;;;;;;61.88;26.63;;;1.60;99.90;;;;;;5054300;28;20102;-66
2022/12/22 12:43:51;;;;;;;65.32;25.58;;;1.60;99.90;;;;;;5038546;28;20096;-66
2022/12/22 12:46:51;;;;;;;57.00;25.20;;;1.60;99.90;;;;;;5054980;28;20104;-66
2022/12/22 12:49:37;;;;;;;60.05;24.35;;;1.70;99.90;;;;;;5035351;28;20021;-66
2022/12/22 12:52:07;;;;;;;57.53;24.73;;;1.80;99.90;;;;;;5034995;28;20036;-65
2022/12/22 12:54:43;;;;;;;65.05;24.40;;;1.80;99.90;;;;;;5034788;28;20018;-66
2022/12/22 12:57:22;;;;;;;56.40;23.98;;;1.80;99.90;;;;;;5034988;28;20021;-66
2022/12/22 12:59:49;;;;;;;57.40;25.65;;;1.80;99.90;;;;;;5034507;28;20029;-67
2022/12/22 13:02:27;;;;;;;59.45;24.13;;;1.80;99.90;;;;;;5034930;28;20034;-66
2022/12/22 13:05:11;;;;;;;58.75;26.58;;;1.80;99.90;;;;;;5032405;28;20022;-66
2022/12/22 13:08:09;;;;;;;55.75;24.70;;;1.80;99.90;;;;;;5032827;28;20056;-66
2022/12/22 13:10:45;;;;;;;57.88;24.00;;;1.90;99.90;;;;;;5034337;28;20109;-66
2022/12/22 13:13:12;;;;;;;58.47;23.33;;;1.90;99.90;;;;;;5034666;28;20029;-66
2022/12/22 13:15:41;;;;;;;60.90;24.15;;;1.90;99.90;;;;;;5034270;28;20026;-66
2022/12/22 13:18:25;;;;;;;54.65;23.15;;;1.90;99.90;;;;;;5034451;28;20425;-66
2022/12/22 13:20:58;;;;;;;56.42;24.38;;;2.00;99.90;;;;;;5034078;28;20036;-66
2022/12/22 13:23:34;;;;;;;55.58;23.63;;;2.00;99.90;;;;;;5045608;28;20083;-66
2022/12/22 13:26:05;;;;;;;61.60;25.60;;;2.00;99.90;;;;;;5054325;28;20021;-66
2022/12/22 13:28:31;;;;;;;67.25;26.65;;;2.10;99.90;;;;;;5054051;28;20090;-67
2022/12/22 13:31:03;;;;;;;64.30;25.98;;;2.10;99.90;;;;;;5054191;28;20505;-67
2022/12/22 13:33:35;;;;;;;59.47;24.35;;;2.10;99.90;;;;;;5054393;28;20071;-66
2022/12/22 13:36:03;;;;;;;56.47;24.17;;;2.10;99.90;;;;;;5053986;28;20031;-66
2022/12/22 13:38:30;;;;;;;61.15;25.48;;;2.10;99.90;;;;;;5054296;28;20359;-66
2022/12/22 13:40:59;;;;;;;60.40;26.10;;;2.10;99.90;;;;;;5053981;28;20063;-66
2022/12/22 13:43:26;;;;;;;58.25;24.75;;;2.10;99.90;;;;;;5054029;28;20055;-66
2022/12/22 13:45:55;;;;;;;67.75;25.52;;;2.10;99.90;;;;;;5053306;28;20112;-66
2022/12/22 13:48:35;;;;;;;67.03;25.30;;;2.20;99.90;;;;;;5053945;28;20082;-66
2022/12/22 13:51:04;;;;;;;58.88;25.70;;;2.20;99.90;;;;;;5054041;28;20051;-66
2022/12/22 13:53:46;;;;;;;68.80;28.60;;;2.20;99.90;;;;;;5053799;28;20025;-66
2022/12/22 13:56:20;;;;;;;57.47;25.63;;;2.20;99.90;;;;;;5053860;28;20029;-66
2022/12/22 13:58:49;;;;;;;63.95;27.20;;;2.20;99.90;;;;;;5053493;28;20040;-66
2022/12/22 14:01:17;;;;;;;64.15;25.98;;;2.30;99.90;;;;;;5053355;28;20060;-66
2022/12/22 14:03:49;;;;;;;58.80;25.70;;;2.30;99.90;;;;;;5053376;28;20067;-66
2022/12/22 14:06:28;;;;;;;64.22;26.90;;;2.30;99.90;;;;;;5053694;28;20029;-66
2022/12/22 14:09:08;;;;;;;65.18;28.13;;;2.30;99.90;;;;;;5053221;28;20029;-67
2022/12/22 14:11:34;;;;;;;60.87;27.57;;;2.40;99.90;;;;;;5053261;28;20377;-70
2022/12/22 14:13:59;;;;;;;63.80;28.05;;;2.30;99.90;;;;;;5053255;28;20029;-67
2022/12/22 14:16:25;;;;;;;65.63;27.80;;;2.40;99.90;;;;;;5052187;28;20163;-67
2022/12/22 14:18:52;;;;;;;64.65;28.02;;;2.40;99.90;;;;;;5051830;28;20025;-67
2022/12/22 14:21:18;;;;;;;66.10;29.73;;;2.40;99.90;;;;;;5053048;28;20036;-66
2022/12/22 14:23:45;;;;;;;65.13;28.05;;;2.40;99.90;;;;;;5052749;28;20098;-67
2022/12/22 14:26:21;;;;;;;60.63;27.70;;;2.50;99.90;;;;;;5053584;28;20055;-66
2022/12/22 14:28:52;;;;;;;63.47;28.52;;;2.50;99.90;;;;;;5053060;28;20047;-66
2022/12/22 14:31:18;;;;;;;62.65;27.23;;;2.50;99.90;;;;;;5053371;28;20043;-66
2022/12/22 14:33:55;;;;;;;62.42;27.33;;;2.50;99.90;;;;;;5052717;28;20033;-67
2022/12/22 14:36:22;;;;;;;63.63;28.38;;;2.60;99.90;;;;;;5053133;28;20056;-67
2022/12/22 14:38:57;;;;;;;62.38;28.17;;;2.60;99.90;;;;;;5069096;28;20441;-67
2022/12/22 14:41:42;;;;;;;63.85;28.27;;;2.60;99.90;;;;;;5069238;28;20451;-66
2022/12/22 14:44:21;;;;;;;60.80;27.02;;;2.60;99.90;;;;;;5069308;28;20060;-67
2022/12/22 14:47:18;;;;;;;66.03;29.63;;;2.60;99.90;;;;;;5069079;28;20033;-67
2022/12/22 14:50:00;;;;;;;70.43;28.77;;;2.60;99.90;;;;;;5065173;28;20052;-67
2022/12/22 14:52:44;;;;;;;70.82;30.15;;;2.60;99.90;;;;;;5069048;28;20029;-67
2022/12/22 14:55:32;;;;;;;69.57;28.48;;;2.60;99.90;;;;;;5069413;28;20089;-66
2022/12/22 14:58:16;;;;;;;65.85;29.70;;;2.60;99.90;;;;;;5068903;28;20108;-65
2022/12/22 15:01:05;;;;;;;62.63;27.17;;;2.60;99.90;;;;;;5068753;28;20024;-66
2022/12/22 15:03:36;;;;;;;54.70;26.02;;;2.70;99.90;;;;;;5069018;28;20066;-66
2022/12/22 15:06:23;;;;;;;60.10;27.05;;;2.70;99.90;;;;;;5069231;28;20029;-66
2022/12/22 15:08:51;;;;;;;66.80;27.27;;;2.70;99.90;;;;;;5068672;28;20032;-66
2022/12/22 15:11:18;;;;;;;62.28;27.52;;;2.70;99.90;;;;;;5069280;28;20424;-66
2022/12/22 15:13:46;;;;;;;63.35;27.60;;;2.70;99.90;;;;;;5068431;28;20090;-66
2022/12/22 15:16:14;;;;;;;63.53;27.80;;;2.70;99.90;;;;;;5069094;28;20059;-66
2022/12/22 15:18:40;;;;;;;63.15;29.35;;;2.70;99.90;;;;;;5068327;28;20028;-66
2022/12/22 15:21:11;;;;;;;59.95;27.17;;;2.80;99.90;;;;;;5068924;28;20035;-66
2022/12/22 15:23:36;;;;;;;57.63;27.08;;;2.80;99.90;;;;;;5068778;28;20381;-66
2022/12/22 15:26:02;;;;;;;66.03;29.55;;;2.70;99.90;;;;;;5068597;28;20024;-66
2022/12/22 15:28:28;;;;;;;75.38;32.15;;;2.70;99.90;;;;;;5068869;28;20530;-66
2022/12/22 15:30:53;;;;;;;56.70;26.23;;;2.80;99.90;;;;;;5068528;28;20527;-66
2022/12/22 15:33:19;;;;;;;55.33;26.58;;;2.80;99.90;;;;;;5068510;28;20469;-66
2022/12/22 15:35:45;;;;;;;59.25;28.27;;;2.80;99.90;;;;;;5068685;28;20370;-67
2022/12/22 15:38:17;;;;;;;57.75;26.70;;;2.80;99.90;;;;;;5068526;28;20052;-67
2022/12/22 15:40:43;;;;;;;56.45;26.48;;;2.80;99.90;;;;;;5068343;28;20090;-67
2022/12/22 15:43:10;;;;;;;66.05;30.95;;;2.90;99.90;;;;;;5068145;28;20061;-67
2022/12/22 15:45:36;;;;;;;67.13;28.23;;;2.90;99.90;;;;;;5068235;28;20047;-67
2022/12/22 15:48:04;;;;;;;60.25;28.35;;;2.90;99.90;;;;;;5067480;28;20024;-67
2022/12/22 15:50:34;;;;;;;60.28;27.23;;;2.90;99.90;;;;;;5055013;28;20406;-67
2022/12/22 15:53:02;;;;;;;59.50;27.95;;;2.90;99.90;;;;;;5054819;28;20028;-67
2022/12/22 15:55:28;;;;;;;65.15;28.40;;;2.90;99.90;;;;;;5054838;28;20025;-67
2022/12/22 15:57:56;;;;;;;67.57;29.60;;;2.90;99.90;;;;;;5054370;28;20066;-66
2022/12/22 16:00:22;;;;;;;66.60;30.73;;;2.90;99.90;;;;;;5053519;28;20074;-66
2022/12/22 16:02:48;;;;;;;58.13;28.67;;;2.90;99.90;;;;;;5054374;28;20025;-66
2022/12/22 16:05:14;;;;;;;63.83;28.40;;;2.90;99.90;;;;;;5053413;28;20048;-66
2022/12/22 16:07:42;;;;;;;57.30;27.35;;;2.90;99.90;;;;;;5054641;28;20036;-66
2022/12/22 16:10:20;;;;;;;50.15;24.33;;;2.90;99.90;;;;;;5054593;28;20025;-65
2022/12/22 16:12:52;;;;;;;56.40;26.50;;;3.00;99.90;;;;;;5054640;28;20028;-66
2022/12/22 16:15:18;;;;;;;55.90;26.60;;;3.00;99.90;;;;;;5054774;28;20032;-65
2022/12/22 16:17:44;;;;;;;53.83;25.98;;;3.00;99.90;;;;;;5053808;28;20508;-66
2022/12/22 16:20:10;;;;;;;54.00;25.65;;;3.10;99.90;;;;;;5054486;28;20037;-65
2022/12/22 16:22:36;;;;;;;51.72;25.38;;;3.10;99.90;;;;;;5052673;28;20029;-66
2022/12/22 16:25:06;;;;;;;68.60;33.60;;;3.10;99.90;;;;;;5053971;28;20413;-66
2022/12/22 16:27:31;;;;;;;54.70;25.33;;;3.10;99.90;;;;;;5054369;28;20112;-66
2022/12/22 16:29:57;;;;;;;51.90;25.35;;;3.10;99.90;;;;;;5053841;28;20044;-66
2022/12/22 16:32:23;;;;;;;52.22;25.48;;;3.10;99.90;;;;;;5054270;28;20031;-67